createdAt,value
2018-05-26T00:01:28.182Z,38
2018-05-26T00:11:27.955Z,38
2018-05-26T00:21:28.448Z,39
2018-05-26T00:31:28.137Z,38
2018-05-26T00:41:27.522Z,39
2018-05-26T00:51:28.508Z,38
2018-05-26T01:01:28.362Z,39
2018-05-26T01:11:29.902Z,39
2018-05-26T01:21:27.886Z,38
2018-05-26T01:31:27.745Z,39
2018-05-26T01:41:28.460Z,40
2018-05-26T01:51:27.629Z,40
2018-05-26T02:01:28.409Z,39
2018-05-26T02:11:28.261Z,40
2018-05-26T02:21:28.449Z,40
2018-05-26T02:31:27.256Z,39
2018-05-26T02:41:28.844Z,39
2018-05-26T02:51:28.446Z,39
2018-05-26T03:01:28.935Z,39
2018-05-26T03:11:26.747Z,39
2018-05-26T03:21:28.227Z,40
2018-05-26T03:31:29.005Z,39
2018-05-26T03:41:26.795Z,39
2018-05-26T03:51:31.977Z,39
2018-05-26T04:01:28.027Z,40
2018-05-26T04:11:28.258Z,39
2018-05-26T04:21:28.779Z,40
2018-05-26T04:31:28.898Z,40
2018-05-26T04:41:29.415Z,39
2018-05-26T04:51:29.552Z,39
2018-05-26T05:01:28.621Z,40
2018-05-26T05:11:28.376Z,40
2018-05-26T05:21:29.205Z,38
2018-05-26T05:31:27.413Z,40
2018-05-26T05:41:27.223Z,39
2018-05-26T05:51:27.504Z,39
2018-05-26T06:01:28.399Z,38
2018-05-26T06:11:28.010Z,38
2018-05-26T06:21:28.581Z,39
2018-05-26T06:31:28.315Z,38
2018-05-26T06:41:27.800Z,39
2018-05-26T06:51:28.599Z,39
2018-05-26T07:01:27.956Z,39
2018-05-26T07:11:27.790Z,38
2018-05-26T07:21:27.648Z,39
2018-05-26T07:31:27.835Z,39
2018-05-26T07:41:33.451Z,36
2018-05-26T07:51:28.380Z,37
2018-05-26T08:01:28.145Z,39
2018-05-26T08:11:27.255Z,39
2018-05-26T08:21:28.514Z,38
2018-05-26T08:31:28.509Z,39
2018-05-26T08:41:29.189Z,36
2018-05-26T08:51:27.889Z,37
2018-05-26T09:01:29.074Z,36
2018-05-26T09:11:27.335Z,38
2018-05-26T09:21:27.479Z,37
2018-05-26T09:31:28.766Z,36
2018-05-26T09:41:28.304Z,37
2018-05-26T09:51:27.773Z,37
2018-05-26T10:01:27.932Z,38
2018-05-26T10:11:28.444Z,36
2018-05-26T10:21:27.861Z,37
2018-05-26T10:31:28.301Z,37
2018-05-26T10:41:27.139Z,36
2018-05-26T10:51:29.634Z,35
2018-05-26T11:01:28.380Z,36
2018-05-26T11:11:29.018Z,36
2018-05-26T11:21:27.155Z,35
2018-05-26T11:31:28.430Z,36
2018-05-26T11:41:27.821Z,36
2018-05-26T11:51:28.786Z,35
2018-05-26T12:01:31.874Z,34
2018-05-26T12:11:28.021Z,36
2018-05-26T12:21:27.872Z,35
2018-05-26T12:31:27.424Z,35
2018-05-26T12:41:27.678Z,36
2018-05-26T12:51:28.265Z,35
2018-05-26T13:01:27.159Z,35
2018-05-26T13:11:28.607Z,35
2018-05-26T13:21:31.130Z,35
2018-05-26T13:31:27.329Z,36
2018-05-26T13:41:28.464Z,34
2018-05-26T13:51:27.725Z,35
2018-05-26T14:01:28.344Z,35
2018-05-26T14:11:28.658Z,34
2018-05-26T14:21:29.707Z,34
2018-05-26T14:31:28.699Z,35
2018-05-26T14:41:28.484Z,35
2018-05-26T14:51:28.659Z,34
2018-05-26T15:01:27.589Z,34
2018-05-26T15:11:28.093Z,34
2018-05-26T15:21:27.389Z,34
2018-05-26T15:31:27.372Z,34
2018-05-26T15:41:27.420Z,35
2018-05-26T15:51:27.522Z,35
2018-05-26T16:01:27.732Z,35
2018-05-26T16:11:27.838Z,35
2018-05-26T16:21:27.822Z,34
2018-05-26T16:31:29.315Z,34
2018-05-26T16:41:27.195Z,34
2018-05-26T16:51:27.320Z,34
2018-05-26T17:01:27.090Z,34
2018-05-26T17:11:27.144Z,33
2018-05-26T17:21:27.099Z,33
2018-05-26T17:31:27.294Z,34
2018-05-26T17:41:27.465Z,34
2018-05-26T17:51:28.758Z,33
2018-05-26T18:01:27.813Z,36
2018-05-26T18:11:28.433Z,35
2018-05-26T18:21:27.387Z,35
2018-05-26T18:31:27.253Z,36
2018-05-26T18:41:27.540Z,36
2018-05-26T18:51:28.136Z,36
2018-05-26T19:01:27.284Z,37
2018-05-26T19:11:27.083Z,36
2018-05-26T19:21:27.581Z,36
2018-05-26T19:31:27.525Z,35
2018-05-26T19:41:27.855Z,37
2018-05-26T19:51:29.127Z,35
2018-05-26T20:01:27.058Z,36
2018-05-26T20:11:29.075Z,35
2018-05-26T20:21:27.020Z,35
2018-05-26T20:31:28.037Z,38
2018-05-26T20:41:27.131Z,38
2018-05-26T20:51:27.239Z,38
2018-05-26T21:01:27.072Z,36
2018-05-26T21:11:27.970Z,37
2018-05-26T21:21:29.689Z,36
2018-05-26T21:31:28.045Z,37
2018-05-26T21:41:27.110Z,38
2018-05-26T21:51:27.194Z,38
2018-05-26T22:01:27.010Z,37
2018-05-26T22:11:28.935Z,37
2018-05-26T22:21:26.843Z,37
2018-05-26T22:31:27.907Z,38
2018-05-26T22:41:28.295Z,37
2018-05-26T22:51:26.728Z,37
2018-05-26T23:01:27.806Z,38
2018-05-26T23:11:27.739Z,38
2018-05-26T23:21:28.736Z,37
2018-05-26T23:31:27.445Z,37
2018-05-26T23:41:28.796Z,38
2018-05-26T23:51:28.871Z,38
